createdAt,value
2019-06-08T00:00:27.670Z,83.10
2019-06-08T00:02:57.512Z,83.20
2019-06-08T00:05:27.327Z,83.10
2019-06-08T00:07:57.113Z,83.50
2019-06-08T00:10:26.943Z,83.40
2019-06-08T00:12:56.723Z,83.20
2019-06-08T00:15:26.519Z,83.30
2019-06-08T00:17:59.242Z,83.70
2019-06-08T00:20:27.779Z,83.80
2019-06-08T00:22:57.575Z,83.90
2019-06-08T00:25:27.352Z,84.10
2019-06-08T00:27:57.171Z,83.70
2019-06-08T00:30:26.943Z,83.80
2019-06-08T00:32:56.743Z,83.40
2019-06-08T00:35:26.533Z,83.30
2019-06-08T00:37:56.341Z,83.10
2019-06-08T00:40:26.194Z,82.80
2019-06-08T00:42:55.967Z,82.50
2019-06-08T00:45:25.788Z,81.50
2019-06-08T00:47:55.554Z,81.50
2019-06-08T00:50:25.416Z,81.10
2019-06-08T00:52:55.190Z,80.40
2019-06-08T00:55:25.736Z,80.30
2019-06-08T00:57:55.730Z,79.80
2019-06-08T01:00:26.677Z,79.20
2019-06-08T01:02:56.806Z,78.80
2019-06-08T01:05:26.604Z,78.70
2019-06-08T01:07:56.375Z,78.60
2019-06-08T01:10:27.501Z,78.80
2019-06-08T01:12:57.370Z,78.10
2019-06-08T01:15:32.671Z,77.30
2019-06-08T01:18:03.785Z,77.40
2019-06-08T01:20:30.279Z,77.40
2019-06-08T01:23:00.044Z,77.50
2019-06-08T01:25:30.173Z,77.80
2019-06-08T01:28:01.141Z,77.70
2019-06-08T01:30:31.168Z,78.20
2019-06-08T01:33:00.949Z,77.90
2019-06-08T01:35:30.978Z,78.20
2019-06-08T01:38:00.783Z,78.00
2019-06-08T01:40:31.552Z,78.20
2019-06-08T01:43:01.437Z,78.00
2019-06-08T01:45:32.889Z,79.00
2019-06-08T01:48:18.603Z,78.30
2019-06-08T01:50:35.835Z,77.60
2019-06-08T01:53:05.620Z,78.20
2019-06-08T01:55:35.407Z,78.10
2019-06-08T01:58:05.306Z,78.30
2019-06-08T02:00:40.724Z,78.30
2019-06-08T02:03:06.725Z,78.40
2019-06-08T02:05:36.495Z,78.40
2019-06-08T02:08:06.354Z,78.80
2019-06-08T02:10:36.267Z,78.50
2019-06-08T02:13:08.652Z,78.50
2019-06-08T02:15:37.617Z,78.50
2019-06-08T02:18:07.411Z,78.10
2019-06-08T02:20:37.181Z,77.90
2019-06-08T02:23:06.965Z,78.00
2019-06-08T02:25:36.816Z,78.30
2019-06-08T02:28:06.622Z,78.00
2019-06-08T02:30:39.072Z,78.60
2019-06-08T02:33:07.962Z,78.80
2019-06-08T02:35:39.277Z,78.90
2019-06-08T02:38:09.074Z,78.80
2019-06-08T02:40:40.192Z,79.20
2019-06-08T02:43:10.137Z,79.10
2019-06-08T02:45:40.558Z,79.10
2019-06-08T02:48:11.601Z,79.10
2019-06-08T02:50:50.446Z,78.20
2019-06-08T02:53:20.576Z,77.90
2019-06-08T02:55:50.881Z,78.10
2019-06-08T02:58:21.412Z,77.80
2019-06-08T03:00:53.934Z,77.90
2019-06-08T03:03:25.417Z,78.10
2019-06-08T03:05:56.753Z,78.50
2019-06-08T03:08:28.260Z,78.60
2019-06-08T03:10:59.691Z,78.50
2019-06-08T03:13:32.979Z,78.30
2019-06-08T03:16:03.024Z,77.50
2019-06-08T03:18:33.678Z,77.30
2019-06-08T03:21:03.730Z,77.20
2019-06-08T03:23:34.170Z,76.70
2019-06-08T03:26:04.580Z,77.80
2019-06-08T03:28:35.559Z,76.80
2019-06-08T03:31:05.852Z,76.80
2019-06-08T03:33:40.036Z,76.80
2019-06-08T03:36:07.292Z,77.30
2019-06-08T03:38:37.683Z,76.80
2019-06-08T03:41:07.635Z,76.70
2019-06-08T03:43:38.180Z,76.70
2019-06-08T03:46:08.903Z,76.60
2019-06-08T03:48:40.045Z,76.90
2019-06-08T03:51:10.183Z,76.80
2019-06-08T03:53:40.543Z,76.90
2019-06-08T03:56:11.469Z,77.00
2019-06-08T03:58:42.721Z,76.70
2019-06-08T04:01:12.765Z,76.70
2019-06-08T04:03:43.854Z,76.70
2019-06-08T04:06:13.920Z,77.20
2019-06-08T04:08:46.587Z,76.90
2019-06-08T04:11:15.171Z,77.00
2019-06-08T04:13:46.922Z,77.10
2019-06-08T04:16:16.450Z,77.00
2019-06-08T04:18:46.785Z,77.40
2019-06-08T04:21:18.106Z,77.90
2019-06-08T04:23:47.886Z,77.30
2019-06-08T04:26:18.756Z,77.50
2019-06-08T04:28:49.659Z,77.30
2019-06-08T04:31:19.606Z,77.60
2019-06-08T04:33:50.857Z,78.20
2019-06-08T04:36:20.855Z,77.70
2019-06-08T04:38:50.647Z,78.00
2019-06-08T04:41:20.432Z,77.90
2019-06-08T04:43:50.234Z,77.90
2019-06-08T04:46:20.065Z,78.20
2019-06-08T04:48:50.241Z,78.50
2019-06-08T04:51:20.237Z,78.40
2019-06-08T04:53:50.075Z,78.30
2019-06-08T04:56:19.850Z,78.20
2019-06-08T04:58:51.212Z,78.00
2019-06-08T05:01:21.118Z,77.40
2019-06-08T05:03:50.904Z,77.50
2019-06-08T05:06:20.777Z,76.30
2019-06-08T05:08:50.548Z,76.10
2019-06-08T05:11:21.416Z,75.60
2019-06-08T05:13:51.288Z,75.90
2019-06-08T05:16:21.066Z,75.60
2019-06-08T05:18:50.857Z,75.20
2019-06-08T05:21:20.720Z,74.90
2019-06-08T05:23:58.316Z,74.90
2019-06-08T05:26:22.002Z,75.20
2019-06-08T05:28:51.794Z,74.90
2019-06-08T05:31:21.657Z,75.10
2019-06-08T05:33:51.435Z,74.80
2019-06-08T05:36:22.308Z,74.60
2019-06-08T05:38:52.080Z,74.60
2019-06-08T05:41:24.093Z,74.40
2019-06-08T05:43:53.356Z,74.30
2019-06-08T05:46:23.945Z,74.30
2019-06-08T05:48:53.721Z,74.40
2019-06-08T05:51:23.517Z,74.70
2019-06-08T05:53:53.313Z,74.30
2019-06-08T05:56:23.097Z,74.60
2019-06-08T05:58:52.894Z,74.70
2019-06-08T06:01:22.783Z,74.80
2019-06-08T06:03:52.575Z,74.30
2019-06-08T06:06:22.428Z,74.70
2019-06-08T06:08:53.094Z,75.10
2019-06-08T06:11:22.862Z,75.10
2019-06-08T06:13:52.651Z,75.50
2019-06-08T06:16:22.439Z,75.70
2019-06-08T06:18:52.445Z,76.20
2019-06-08T06:21:22.404Z,76.20
2019-06-08T06:23:52.166Z,76.10
2019-06-08T06:26:21.968Z,76.00
2019-06-08T06:28:51.937Z,76.60
2019-06-08T06:31:21.902Z,76.40
2019-06-08T06:33:52.307Z,76.20
2019-06-08T06:36:22.359Z,76.50
2019-06-08T06:38:52.316Z,76.10
2019-06-08T06:41:22.306Z,75.70
2019-06-08T06:43:52.319Z,75.70
2019-06-08T06:46:22.280Z,75.70
2019-06-08T06:48:52.516Z,76.00
2019-06-08T06:51:26.371Z,75.70
2019-06-08T06:53:53.996Z,75.30
2019-06-08T06:56:24.134Z,75.10
2019-06-08T06:58:53.913Z,75.70
2019-06-08T07:01:23.755Z,75.50
2019-06-08T07:03:54.402Z,75.50
2019-06-08T07:06:24.304Z,75.70
2019-06-08T07:08:54.628Z,75.10
2019-06-08T07:11:25.635Z,75.40
2019-06-08T07:13:55.403Z,75.10
2019-06-08T07:16:25.206Z,74.20
2019-06-08T07:18:54.981Z,74.10
2019-06-08T07:21:24.784Z,73.50
2019-06-08T07:23:56.128Z,73.70
2019-06-08T07:26:26.147Z,73.60
2019-06-08T07:28:56.196Z,73.60
2019-06-08T07:31:26.259Z,73.80
2019-06-08T07:33:56.384Z,73.70
2019-06-08T07:36:26.182Z,73.70
2019-06-08T07:38:55.964Z,73.80
2019-06-08T07:41:25.763Z,74.10
2019-06-08T07:43:56.556Z,73.60
2019-06-08T07:46:26.545Z,73.40
2019-06-08T07:48:56.619Z,72.70
2019-06-08T07:51:27.655Z,72.70
2019-06-08T07:53:57.431Z,73.50
2019-06-08T07:56:27.224Z,73.40
2019-06-08T07:58:57.243Z,73.10
2019-06-08T08:01:36.095Z,73.30
2019-06-08T08:03:59.684Z,73.10
2019-06-08T08:06:30.445Z,73.30
2019-06-08T08:09:00.591Z,73.00
2019-06-08T08:11:31.976Z,73.20
2019-06-08T08:14:01.827Z,73.00
2019-06-08T08:16:31.628Z,73.40
2019-06-08T08:19:01.429Z,73.10
2019-06-08T08:21:31.213Z,72.60
2019-06-08T08:24:01.636Z,73.20
2019-06-08T08:26:34.511Z,72.30
2019-06-08T08:29:03.646Z,72.40
2019-06-08T08:31:34.580Z,72.70
2019-06-08T08:34:06.855Z,72.00
2019-06-08T08:36:37.932Z,71.80
2019-06-08T08:39:08.583Z,72.40
2019-06-08T08:41:39.176Z,72.50
2019-06-08T08:44:09.103Z,72.80
2019-06-08T08:46:38.980Z,72.80
2019-06-08T08:49:12.328Z,72.60
2019-06-08T08:51:40.227Z,72.70
2019-06-08T08:54:10.034Z,72.90
2019-06-08T08:56:39.829Z,73.40
2019-06-08T08:59:10.838Z,73.70
2019-06-08T09:01:40.867Z,74.20
2019-06-08T09:04:10.644Z,74.20
2019-06-08T09:06:40.433Z,74.20
2019-06-08T09:09:10.215Z,74.10
2019-06-08T09:11:41.314Z,74.00
2019-06-08T09:14:14.019Z,73.90
2019-06-08T09:16:42.867Z,73.90
2019-06-08T09:19:12.634Z,73.60
2019-06-08T09:21:42.415Z,73.10
2019-06-08T09:24:12.349Z,72.40
2019-06-08T09:26:42.329Z,72.10
2019-06-08T09:29:12.177Z,71.70
2019-06-08T09:31:41.977Z,71.90
2019-06-08T09:34:15.310Z,71.60
2019-06-08T09:36:43.331Z,71.50
2019-06-08T09:39:13.691Z,71.10
2019-06-08T09:41:43.580Z,69.90
2019-06-08T09:44:13.410Z,70.20
2019-06-08T09:46:43.227Z,69.30
2019-06-08T09:49:13.015Z,69.30
2019-06-08T09:51:42.804Z,69.50
2019-06-08T09:54:13.206Z,69.80
2019-06-08T09:56:43.081Z,69.90
2019-06-08T09:59:15.398Z,70.50
2019-06-08T10:01:46.487Z,70.70
2019-06-08T10:04:16.319Z,70.80
2019-06-08T10:06:47.951Z,70.50
2019-06-08T10:09:18.617Z,69.90
2019-06-08T10:11:48.584Z,69.60
2019-06-08T10:14:18.832Z,69.80
2019-06-08T10:16:48.870Z,69.80
2019-06-08T10:19:19.711Z,69.30
2019-06-08T10:21:49.508Z,70.00
2019-06-08T10:24:19.305Z,69.40
2019-06-08T10:26:50.077Z,69.30
2019-06-08T10:29:19.856Z,68.30
2019-06-08T10:31:49.724Z,68.00
2019-06-08T10:34:19.500Z,68.70
2019-06-08T10:36:49.287Z,68.30
2019-06-08T10:39:19.078Z,68.90
2019-06-08T10:41:51.626Z,68.60
2019-06-08T10:44:20.434Z,68.00
2019-06-08T10:46:50.226Z,68.00
2019-06-08T10:49:28.717Z,67.90
2019-06-08T10:52:00.378Z,68.00
2019-06-08T10:54:29.202Z,67.40
2019-06-08T10:57:00.284Z,67.50
2019-06-08T10:59:30.488Z,68.10
2019-06-08T11:02:02.724Z,68.20
2019-06-08T11:04:31.786Z,67.50
2019-06-08T11:07:07.220Z,67.90
2019-06-08T11:09:33.104Z,68.10
2019-06-08T11:12:03.286Z,67.30
2019-06-08T11:14:35.423Z,67.10
2019-06-08T11:17:08.295Z,67.90
2019-06-08T11:19:37.659Z,67.60
2019-06-08T11:22:12.441Z,69.00
2019-06-08T11:24:39.073Z,68.40
2019-06-08T11:27:12.513Z,68.70
2019-06-08T11:29:40.339Z,68.60
2019-06-08T11:32:12.356Z,67.10
2019-06-08T11:34:41.618Z,65.40
2019-06-08T11:37:13.329Z,65.20
2019-06-08T11:39:42.960Z,65.90
2019-06-08T11:42:13.177Z,66.10
2019-06-08T11:44:43.132Z,66.00
2019-06-08T11:47:13.529Z,66.20
2019-06-08T11:49:44.524Z,66.20
2019-06-08T11:52:14.308Z,65.80
2019-06-08T11:54:44.081Z,65.30
2019-06-08T11:57:14.209Z,64.40
2019-06-08T11:59:44.057Z,64.30
2019-06-08T12:02:14.327Z,65.50
2019-06-08T12:04:44.271Z,63.50
2019-06-08T12:07:14.136Z,62.90
2019-06-08T12:09:43.927Z,62.90
2019-06-08T12:12:17.537Z,63.10
2019-06-08T12:14:47.474Z,62.80
2019-06-08T12:17:21.740Z,63.00
2019-06-08T12:19:48.227Z,63.30
2019-06-08T12:22:18.086Z,64.50
2019-06-08T12:24:47.877Z,64.50
2019-06-08T12:27:26.880Z,64.10
2019-06-08T12:29:50.411Z,63.40
2019-06-08T12:32:20.324Z,63.40
2019-06-08T12:34:50.132Z,64.20
2019-06-08T12:37:22.376Z,64.00
2019-06-08T12:39:51.378Z,64.00
2019-06-08T12:42:24.774Z,64.50
2019-06-08T12:44:52.669Z,63.90
2019-06-08T12:47:26.641Z,62.00
2019-06-08T12:49:54.326Z,61.20
2019-06-08T12:52:24.103Z,61.30
2019-06-08T12:55:02.622Z,61.00
2019-06-08T12:57:25.370Z,61.10
2019-06-08T12:59:59.803Z,60.70
2019-06-08T13:02:28.272Z,60.80
2019-06-08T13:04:58.070Z,60.90
2019-06-08T13:07:28.203Z,59.90
2019-06-08T13:09:58.412Z,59.30
2019-06-08T13:12:28.395Z,59.40
2019-06-08T13:14:58.410Z,59.00
2019-06-08T13:17:29.472Z,58.60
2019-06-08T13:19:59.250Z,58.60
2019-06-08T13:22:31.444Z,58.60
2019-06-08T13:25:15.931Z,58.40
2019-06-08T13:27:33.133Z,58.10
2019-06-08T13:30:02.912Z,58.00
2019-06-08T13:32:33.765Z,58.20
2019-06-08T13:35:08.095Z,58.60
2019-06-08T13:37:39.016Z,58.40
2019-06-08T13:40:11.383Z,58.20
2019-06-08T13:42:42.283Z,58.20
2019-06-08T13:45:13.542Z,59.00
2019-06-08T13:47:44.686Z,59.40
2019-06-08T13:50:14.910Z,59.70
2019-06-08T13:52:44.712Z,59.50
2019-06-08T13:55:34.574Z,58.70
2019-06-08T13:57:49.131Z,58.80
2019-06-08T14:00:23.777Z,58.10
2019-06-08T14:02:53.707Z,57.50
2019-06-08T14:05:30.942Z,56.90
2019-06-08T14:08:00.885Z,57.00
2019-06-08T14:10:39.300Z,57.50
2019-06-08T14:13:10.895Z,58.30
2019-06-08T14:15:40.673Z,58.00
2019-06-08T14:18:10.829Z,57.30
2019-06-08T14:20:40.621Z,56.70
2019-06-08T14:23:10.432Z,56.30
2019-06-08T14:25:50.592Z,56.50
2019-06-08T14:28:11.699Z,56.50
2019-06-08T14:30:41.515Z,56.30
2019-06-08T14:33:11.303Z,56.00
2019-06-08T14:35:41.095Z,56.40
2019-06-08T14:38:10.891Z,57.30
2019-06-08T14:40:40.663Z,58.30
2019-06-08T14:43:10.879Z,59.30
2019-06-08T14:45:40.856Z,60.40
2019-06-08T14:48:10.635Z,60.90
2019-06-08T14:50:41.005Z,63.20
2019-06-08T14:53:10.978Z,64.70
2019-06-08T14:55:41.783Z,64.00
2019-06-08T14:58:11.571Z,61.80
2019-06-08T15:00:41.357Z,61.20
2019-06-08T15:03:11.147Z,60.90
2019-06-08T15:05:40.963Z,60.90
2019-06-08T15:08:10.741Z,60.30
2019-06-08T15:10:40.541Z,61.20
2019-06-08T15:13:10.335Z,60.30
2019-06-08T15:15:40.188Z,58.90
2019-06-08T15:18:11.079Z,58.90
2019-06-08T15:20:41.052Z,58.60
2019-06-08T15:23:10.847Z,58.20
2019-06-08T15:25:40.623Z,58.00
2019-06-08T15:28:10.419Z,57.90
2019-06-08T15:30:40.195Z,58.30
2019-06-08T15:33:10.001Z,57.60
2019-06-08T15:35:39.785Z,53.10
2019-06-08T15:38:09.566Z,51.70
2019-06-08T15:40:42.145Z,53.00
2019-06-08T15:43:11.955Z,50.30
2019-06-08T15:45:41.723Z,47.10
2019-06-08T15:48:11.517Z,46.00
2019-06-08T15:50:41.308Z,43.50
2019-06-08T15:53:11.099Z,44.70
2019-06-08T15:55:40.896Z,45.00
2019-06-08T15:58:10.667Z,46.70
2019-06-08T16:00:40.479Z,46.80
2019-06-08T16:03:10.276Z,47.80
2019-06-08T16:05:40.130Z,49.00
2019-06-08T16:08:09.912Z,50.30
2019-06-08T16:10:39.728Z,50.40
2019-06-08T16:13:09.508Z,50.50
2019-06-08T16:15:39.337Z,51.00
2019-06-08T16:18:09.140Z,51.10
2019-06-08T16:20:39.127Z,51.20
2019-06-08T16:23:08.967Z,51.60
2019-06-08T16:25:39.038Z,51.70
2019-06-08T16:28:09.013Z,52.30
2019-06-08T16:30:39.441Z,52.80
2019-06-08T16:33:09.420Z,53.10
2019-06-08T16:35:39.935Z,53.40
2019-06-08T16:38:09.950Z,54.50
2019-06-08T16:40:40.470Z,55.10
2019-06-08T16:43:10.641Z,55.10
2019-06-08T16:45:40.556Z,55.80
2019-06-08T16:48:10.327Z,56.60
2019-06-08T16:50:40.119Z,57.30
2019-06-08T16:53:09.904Z,58.20
2019-06-08T16:55:39.698Z,59.20
2019-06-08T16:58:09.475Z,59.60
2019-06-08T17:00:42.055Z,60.00
2019-06-08T17:03:10.746Z,60.30
2019-06-08T17:05:41.909Z,60.60
2019-06-08T17:08:13.084Z,61.00
2019-06-08T17:10:42.897Z,61.70
2019-06-08T17:13:12.685Z,61.80
2019-06-08T17:15:42.605Z,62.20
2019-06-08T17:18:12.399Z,62.40
2019-06-08T17:20:42.178Z,62.50
2019-06-08T17:23:11.970Z,63.80
2019-06-08T17:25:41.761Z,69.40
2019-06-08T17:28:11.550Z,75.50
2019-06-08T17:30:41.529Z,77.70
2019-06-08T17:33:11.406Z,79.40
2019-06-08T17:35:42.353Z,79.70
2019-06-08T17:38:12.268Z,80.70
2019-06-08T17:40:43.016Z,80.80
2019-06-08T17:43:12.806Z,81.00
2019-06-08T17:45:42.930Z,81.90
2019-06-08T17:48:12.879Z,82.30
2019-06-08T17:50:43.005Z,83.80
2019-06-08T17:53:12.925Z,84.50
2019-06-08T17:55:43.928Z,85.20
2019-06-08T17:58:13.847Z,85.70
2019-06-08T18:00:45.152Z,86.20
2019-06-08T18:03:17.120Z,87.00
2019-06-08T18:05:48.461Z,87.60
2019-06-08T18:08:18.590Z,87.80
2019-06-08T18:10:48.440Z,88.10
2019-06-08T18:13:18.558Z,87.40
2019-06-08T18:15:49.481Z,87.50
2019-06-08T18:18:19.316Z,87.40
2019-06-08T18:20:51.974Z,86.50
2019-06-08T18:23:20.577Z,86.00
2019-06-08T18:25:50.638Z,85.60
2019-06-08T18:28:21.495Z,86.50
2019-06-08T18:30:51.371Z,85.40
2019-06-08T18:33:21.136Z,85.30
2019-06-08T18:35:50.927Z,85.10
2019-06-08T18:38:20.724Z,85.30
2019-06-08T18:40:50.511Z,85.50
2019-06-08T18:43:21.856Z,85.80
2019-06-08T18:45:51.725Z,85.70
2019-06-08T18:48:21.527Z,85.80
2019-06-08T18:50:51.299Z,85.90
2019-06-08T18:53:21.103Z,86.10
2019-06-08T18:55:50.943Z,86.40
2019-06-08T18:58:24.919Z,86.60
2019-06-08T19:00:52.256Z,86.90
2019-06-08T19:03:22.067Z,87.00
2019-06-08T19:05:52.249Z,87.00
2019-06-08T19:08:23.367Z,87.10
2019-06-08T19:10:53.143Z,87.20
2019-06-08T19:13:22.939Z,87.30
2019-06-08T19:15:53.188Z,87.50
2019-06-08T19:18:23.582Z,87.50
2019-06-08T19:20:53.788Z,87.50
2019-06-08T19:23:23.656Z,87.50
2019-06-08T19:25:53.428Z,87.80
2019-06-08T19:28:35.754Z,88.10
2019-06-08T19:30:54.707Z,88.00
2019-06-08T19:33:24.499Z,88.30
2019-06-08T19:35:54.311Z,88.70
2019-06-08T19:38:24.145Z,89.00
2019-06-08T19:40:53.942Z,89.20
2019-06-08T19:43:23.738Z,89.30
2019-06-08T19:45:53.569Z,89.40
2019-06-08T19:48:23.384Z,89.70
2019-06-08T19:50:54.449Z,89.80
2019-06-08T19:53:24.344Z,89.90
2019-06-08T19:55:54.345Z,90.10
2019-06-08T19:58:25.263Z,90.10
2019-06-08T20:00:55.183Z,90.20
2019-06-08T20:03:27.533Z,90.30
2019-06-08T20:05:57.399Z,90.40
2019-06-08T20:08:29.140Z,90.50
2019-06-08T20:10:58.739Z,90.50
2019-06-08T20:13:28.511Z,90.50
2019-06-08T20:16:01.821Z,90.50
2019-06-08T20:18:29.791Z,90.60
2019-06-08T20:20:59.597Z,90.60
2019-06-08T20:23:29.378Z,90.60
2019-06-08T20:26:00.805Z,90.70
2019-06-08T20:28:30.741Z,90.70
2019-06-08T20:31:00.535Z,90.80
2019-06-08T20:33:30.307Z,90.70
2019-06-08T20:36:00.100Z,90.80
2019-06-08T20:38:37.821Z,90.80
2019-06-08T20:41:01.389Z,90.90
2019-06-08T20:43:31.222Z,90.90
2019-06-08T20:46:01.060Z,90.90
2019-06-08T20:48:30.841Z,90.90
2019-06-08T20:51:00.640Z,90.90
2019-06-08T20:53:30.428Z,91.00
2019-06-08T20:56:00.207Z,91.10
2019-06-08T20:58:29.998Z,91.10
2019-06-08T21:00:59.854Z,91.00
2019-06-08T21:03:29.644Z,91.00
2019-06-08T21:05:59.439Z,91.10
2019-06-08T21:08:29.404Z,91.00
2019-06-08T21:10:59.188Z,91.10
2019-06-08T21:13:28.985Z,91.40
2019-06-08T21:16:00.652Z,91.10
2019-06-08T21:18:30.327Z,91.20
2019-06-08T21:21:00.100Z,91.20
2019-06-08T21:23:31.966Z,91.20
2019-06-08T21:26:01.573Z,91.30
2019-06-08T21:28:31.418Z,91.20
2019-06-08T21:31:02.292Z,91.30
2019-06-08T21:33:32.440Z,91.30
2019-06-08T21:36:04.943Z,91.40
2019-06-08T21:38:34.087Z,91.40
2019-06-08T21:41:03.851Z,91.40
2019-06-08T21:43:37.285Z,91.50
2019-06-08T21:46:07.824Z,91.50
2019-06-08T21:48:38.268Z,91.50
2019-06-08T21:51:09.375Z,91.60
2019-06-08T21:53:39.185Z,91.60
2019-06-08T21:56:08.981Z,91.60
2019-06-08T21:58:38.775Z,91.60
2019-06-08T22:01:08.619Z,91.60
2019-06-08T22:03:38.402Z,91.60
2019-06-08T22:06:08.232Z,91.60
2019-06-08T22:08:38.047Z,91.60
2019-06-08T22:11:08.599Z,91.60
2019-06-08T22:13:38.918Z,91.70
2019-06-08T22:16:08.741Z,91.70
2019-06-08T22:18:38.499Z,91.70
2019-06-08T22:21:08.446Z,91.70
2019-06-08T22:23:38.235Z,91.70
2019-06-08T22:26:08.471Z,91.70
2019-06-08T22:28:38.389Z,91.70
2019-06-08T22:31:08.174Z,91.60
2019-06-08T22:33:38.095Z,91.80
2019-06-08T22:36:09.072Z,91.80
2019-06-08T22:38:39.190Z,91.80
2019-06-08T22:41:08.986Z,91.80
2019-06-08T22:43:38.775Z,91.80
2019-06-08T22:46:08.591Z,91.70
2019-06-08T22:48:38.582Z,91.70
2019-06-08T22:51:08.451Z,91.70
2019-06-08T22:53:38.529Z,91.70
2019-06-08T22:56:08.552Z,91.70
2019-06-08T22:58:38.336Z,91.70
2019-06-08T23:01:11.416Z,91.70
2019-06-08T23:03:39.608Z,91.60
2019-06-08T23:06:09.466Z,91.70
2019-06-08T23:08:39.256Z,91.70
2019-06-08T23:11:09.043Z,91.70
2019-06-08T23:13:38.846Z,91.70
2019-06-08T23:16:09.098Z,92.10
2019-06-08T23:18:38.991Z,91.90
2019-06-08T23:21:09.064Z,91.90
2019-06-08T23:23:39.966Z,92.20
2019-06-08T23:26:10.581Z,91.90
2019-06-08T23:28:40.619Z,91.90
2019-06-08T23:31:21.070Z,92.00
2019-06-08T23:33:41.916Z,92.00
2019-06-08T23:38:43.183Z,92.10
2019-06-08T23:41:14.033Z,92.00
2019-06-08T23:43:43.821Z,92.10
2019-06-08T23:46:13.615Z,92.10
2019-06-08T23:48:43.421Z,92.10
2019-06-08T23:51:14.279Z,92.10
2019-06-08T23:53:44.065Z,92.20
2019-06-08T23:56:13.852Z,92.20
2019-06-08T23:58:43.656Z,92.30
